Time;durP1;ratioP1;P1;durP2;ratioP2;P2;SDS_P1;SDS_P2;PMS_P1;PMS_P2;Temp;Humidity;BMP_temperature;BMP_pressure;BME280_temperature;BME280_humidity;BME280_pressure;Samples;Min_cycle;Max_cycle;Signal;HPM_P1;HPM_P2
2022/09/06 00:02:24;;;;;;;0.63;0.60;;;;;;;;;;5118843;27;20313;-59
2022/09/06 00:05:13;;;;;;;0.70;0.70;;;;;;;;;;5122676;27;20234;-60
2022/09/06 00:08:00;;;;;;;0.70;0.70;;;;;;;;;;5115685;27;20290;-59
2022/09/06 00:10:47;;;;;;;0.57;0.57;;;;;;;;;;5119229;27;20282;-60
2022/09/06 00:13:35;;;;;;;0.80;0.80;;;;;;;;;;5118556;27;20215;-59
2022/09/06 00:16:23;;;;;;;0.60;0.60;;;;;;;;;;5125243;27;20218;-59
2022/09/06 00:19:10;;;;;;;0.90;0.90;;;;;;;;;;5120703;27;20296;-60
2022/09/06 00:21:58;;;;;;;0.97;0.80;;;;;;;;;;5116381;27;20210;-59
2022/09/06 00:24:45;;;;;;;0.60;0.60;;;;;;;;;;5118137;27;20202;-59
2022/09/06 00:27:33;;;;;;;0.80;0.80;;;;;;;;;;5121442;27;20195;-59
2022/09/06 00:30:19;;;;;;;0.80;0.80;;;;;;;;;;5117868;27;20293;-59
2022/09/06 00:33:06;;;;;;;0.70;0.70;;;;;;;;;;5127497;27;20242;-59
2022/09/06 00:35:58;;;;;;;1.07;0.73;;;;;;;;;;5118122;27;20769;-59
2022/09/06 00:38:47;;;;;;;0.60;0.60;;;;;;;;;;5117602;27;20203;-59
2022/09/06 00:41:34;;;;;;;0.60;0.60;;;;;;;;;;5118370;27;20695;-59
2022/09/06 00:44:20;;;;;;;0.60;0.60;;;;;;;;;;5115651;27;20297;-59
2022/09/06 00:47:08;;;;;;;0.70;0.70;;;;;;;;;;5119101;27;20239;-59
2022/09/06 00:49:58;;;;;;;0.40;0.40;;;;;;;;;;5121698;27;20238;-59
2022/09/06 00:52:48;;;;;;;0.50;0.50;;;;;;;;;;5117058;27;20289;-59
2022/09/06 00:55:37;;;;;;;0.80;0.60;;;;;;;;;;5117312;27;20344;-60
2022/09/06 00:58:25;;;;;;;0.67;0.67;;;;;;;;;;5118408;27;20285;-60
2022/09/06 01:01:11;;;;;;;0.50;0.50;;;;;;;;;;5118803;27;20286;-59
2022/09/06 01:03:59;;;;;;;0.50;0.50;;;;;;;;;;5120319;27;20285;-59
2022/09/06 01:06:57;;;;;;;1.03;0.83;;;;;;;;;;5116623;27;20267;-59
2022/09/06 01:09:57;;;;;;;0.53;0.53;;;;;;;;;;5117468;28;20288;-59
2022/09/06 01:12:54;;;;;;;0.60;0.60;;;;;;;;;;5117804;28;20213;-59
2022/09/06 01:15:51;;;;;;;0.50;0.50;;;;;;;;;;5119080;27;20327;-59
2022/09/06 01:18:52;;;;;;;0.53;0.53;;;;;;;;;;5120909;27;20329;-59
2022/09/06 01:21:50;;;;;;;0.50;0.50;;;;;;;;;;5121243;27;20221;-59
2022/09/06 01:25:01;;;;;;;0.43;0.43;;;;;;;;;;5120689;27;20742;-60
2022/09/06 01:28:12;;;;;;;0.50;0.50;;;;;;;;;;5090707;27;20242;-59
2022/09/06 01:31:13;;;;;;;0.47;0.47;;;;;;;;;;5118935;27;20377;-59
2022/09/06 01:34:17;;;;;;;0.50;0.50;;;;;;;;;;5126019;27;20303;-59
2022/09/06 01:37:09;;;;;;;0.40;0.40;;;;;;;;;;5126903;27;20222;-59
2022/09/06 01:39:56;;;;;;;0.47;0.47;;;;;;;;;;5124981;27;20260;-59
2022/09/06 01:42:46;;;;;;;0.50;0.50;;;;;;;;;;5117202;27;20235;-60
2022/09/06 01:45:43;;;;;;;0.43;0.43;;;;;;;;;;5120317;27;20198;-59
2022/09/06 01:48:46;;;;;;;0.40;0.40;;;;;;;;;;5122574;27;20239;-59
2022/09/06 01:51:40;;;;;;;0.60;0.60;;;;;;;;;;5121143;27;20294;-59
2022/09/06 01:54:41;;;;;;;0.40;0.40;;;;;;;;;;5116231;27;20241;-59
2022/09/06 01:57:44;;;;;;;0.50;0.50;;;;;;;;;;5124253;27;20768;-60
2022/09/06 02:00:35;;;;;;;1.70;0.50;;;;;;;;;;5126337;27;20292;-59
2022/09/06 02:03:32;;;;;;;0.50;0.50;;;;;;;;;;5124897;27;20295;-59
2022/09/06 02:06:23;;;;;;;0.50;0.50;;;;;;;;;;5118093;27;20252;-59
2022/09/06 02:09:14;;;;;;;0.40;0.40;;;;;;;;;;5125701;27;20284;-60
2022/09/06 02:12:04;;;;;;;0.60;0.60;;;;;;;;;;5121309;27;20329;-59
2022/09/06 02:14:55;;;;;;;0.40;0.40;;;;;;;;;;5118118;27;20204;-59
2022/09/06 02:17:48;;;;;;;0.83;0.40;;;;;;;;;;5119575;27;20819;-59
2022/09/06 02:20:41;;;;;;;0.40;0.40;;;;;;;;;;5120733;27;20316;-60
2022/09/06 02:23:31;;;;;;;0.50;0.50;;;;;;;;;;5121185;27;20709;-59
2022/09/06 02:26:21;;;;;;;0.40;0.40;;;;;;;;;;5128607;27;20208;-59
2022/09/06 02:29:08;;;;;;;0.40;0.40;;;;;;;;;;5123246;27;20641;-59
2022/09/06 02:32:01;;;;;;;0.50;0.50;;;;;;;;;;5114189;27;20229;-59
2022/09/06 02:34:49;;;;;;;0.30;0.30;;;;;;;;;;5117077;27;20235;-59
2022/09/06 02:37:38;;;;;;;0.40;0.40;;;;;;;;;;5119869;27;20271;-59
2022/09/06 02:40:25;;;;;;;0.50;0.50;;;;;;;;;;5123672;27;20288;-59
2022/09/06 02:43:12;;;;;;;0.30;0.30;;;;;;;;;;5120837;27;20201;-60
2022/09/06 02:45:59;;;;;;;0.30;0.30;;;;;;;;;;5120172;27;20206;-59
2022/09/06 02:48:46;;;;;;;0.40;0.40;;;;;;;;;;5118156;27;20334;-59
2022/09/06 02:51:36;;;;;;;0.30;0.30;;;;;;;;;;5123416;27;20658;-59
2022/09/06 02:54:25;;;;;;;0.67;0.67;;;;;;;;;;5118889;27;20220;-59
2022/09/06 02:57:12;;;;;;;0.27;0.27;;;;;;;;;;5119976;27;20257;-59
2022/09/06 02:59:58;;;;;;;0.40;0.40;;;;;;;;;;5120415;27;20670;-59
2022/09/06 03:02:45;;;;;;;0.23;0.23;;;;;;;;;;5121203;27;20218;-60
2022/09/06 03:05:33;;;;;;;0.40;0.40;;;;;;;;;;5117975;27;20308;-59
2022/09/06 03:08:24;;;;;;;0.50;0.50;;;;;;;;;;5117147;27;20211;-59
2022/09/06 03:11:12;;;;;;;0.50;0.50;;;;;;;;;;5117111;27;20210;-59
2022/09/06 03:13:59;;;;;;;0.40;0.40;;;;;;;;;;5119965;27;20214;-59
2022/09/06 03:16:46;;;;;;;0.50;0.50;;;;;;;;;;5121788;27;20761;-59
2022/09/06 03:19:33;;;;;;;0.37;0.37;;;;;;;;;;5120519;27;20296;-58
2022/09/06 03:22:20;;;;;;;0.40;0.40;;;;;;;;;;5118545;27;20267;-59
2022/09/06 03:25:09;;;;;;;0.37;0.37;;;;;;;;;;5124310;27;20270;-59
2022/09/06 03:27:57;;;;;;;0.37;0.37;;;;;;;;;;5117674;27;20251;-59
2022/09/06 03:30:45;;;;;;;0.30;0.30;;;;;;;;;;5124026;27;20215;-59
2022/09/06 03:33:32;;;;;;;0.40;0.40;;;;;;;;;;5121752;27;20249;-59
2022/09/06 03:36:19;;;;;;;0.40;0.40;;;;;;;;;;5117979;27;20734;-59
2022/09/06 03:39:06;;;;;;;0.40;0.40;;;;;;;;;;5118520;27;20198;-59
2022/09/06 03:41:53;;;;;;;0.50;0.50;;;;;;;;;;5123881;27;20218;-59
2022/09/06 03:44:41;;;;;;;0.43;0.43;;;;;;;;;;5120536;27;20726;-59
2022/09/06 03:47:28;;;;;;;0.30;0.30;;;;;;;;;;5116997;27;20805;-59
2022/09/06 03:50:15;;;;;;;0.43;0.43;;;;;;;;;;5120789;27;20262;-59
2022/09/06 03:53:02;;;;;;;0.40;0.40;;;;;;;;;;5114811;27;20242;-60
2022/09/06 03:55:51;;;;;;;0.77;0.40;;;;;;;;;;5122196;27;20317;-59
2022/09/06 03:58:38;;;;;;;0.40;0.40;;;;;;;;;;5116022;27;20269;-59
2022/09/06 04:01:26;;;;;;;0.30;0.30;;;;;;;;;;5117498;27;20238;-60
2022/09/06 04:04:13;;;;;;;0.30;0.30;;;;;;;;;;5117629;27;20279;-59
2022/09/06 04:07:00;;;;;;;0.30;0.30;;;;;;;;;;5118104;27;20898;-59
2022/09/06 04:09:47;;;;;;;0.30;0.30;;;;;;;;;;5122814;27;20270;-59
2022/09/06 04:12:34;;;;;;;0.50;0.50;;;;;;;;;;5117702;27;20693;-59
2022/09/06 04:15:21;;;;;;;0.43;0.43;;;;;;;;;;5121294;27;20591;-59
2022/09/06 04:18:09;;;;;;;0.30;0.30;;;;;;;;;;5116876;27;20800;-59
2022/09/06 04:20:57;;;;;;;0.40;0.40;;;;;;;;;;5118875;27;21018;-59
2022/09/06 04:23:44;;;;;;;0.43;0.43;;;;;;;;;;5117830;27;20218;-59
2022/09/06 04:26:31;;;;;;;0.40;0.40;;;;;;;;;;5115536;27;20207;-60
2022/09/06 04:29:17;;;;;;;0.40;0.40;;;;;;;;;;5120710;27;20302;-59
2022/09/06 04:32:04;;;;;;;0.50;0.50;;;;;;;;;;5119780;27;20285;-59
2022/09/06 04:34:53;;;;;;;0.40;0.40;;;;;;;;;;5120255;27;20346;-59
2022/09/06 04:37:40;;;;;;;0.20;0.20;;;;;;;;;;5122213;27;20222;-59
2022/09/06 04:40:27;;;;;;;0.50;0.50;;;;;;;;;;5116363;27;20680;-59
2022/09/06 04:43:13;;;;;;;0.40;0.40;;;;;;;;;;5118431;27;20662;-59
2022/09/06 04:46:03;;;;;;;0.20;0.20;;;;;;;;;;5121526;27;20230;-60
2022/09/06 04:48:51;;;;;;;0.63;0.30;;;;;;;;;;5120099;27;20279;-60
2022/09/06 04:51:40;;;;;;;0.50;0.50;;;;;;;;;;5115580;27;20280;-59
2022/09/06 04:54:27;;;;;;;0.30;0.30;;;;;;;;;;5117797;27;20593;-60
2022/09/06 04:57:13;;;;;;;0.87;0.40;;;;;;;;;;5118597;27;20257;-59
2022/09/06 05:00:00;;;;;;;0.50;0.50;;;;;;;;;;5118980;27;20239;-59
2022/09/06 05:02:47;;;;;;;0.30;0.30;;;;;;;;;;5117840;27;20247;-59
2022/09/06 05:05:34;;;;;;;0.40;0.40;;;;;;;;;;5120410;27;20259;-59
2022/09/06 05:08:22;;;;;;;0.40;0.40;;;;;;;;;;5121953;27;20273;-60
2022/09/06 05:11:11;;;;;;;0.40;0.40;;;;;;;;;;5119075;28;20203;-59
2022/09/06 05:13:58;;;;;;;0.40;0.40;;;;;;;;;;5122675;28;20221;-59
2022/09/06 05:16:45;;;;;;;0.30;0.30;;;;;;;;;;5117376;28;20243;-59
2022/09/06 05:19:32;;;;;;;0.30;0.30;;;;;;;;;;5117676;28;20207;-60
2022/09/06 05:22:19;;;;;;;0.40;0.40;;;;;;;;;;5117280;28;20235;-59
2022/09/06 05:25:09;;;;;;;0.40;0.40;;;;;;;;;;5114831;28;20234;-60
2022/09/06 05:27:55;;;;;;;1.70;0.53;;;;;;;;;;5118344;28;20207;-58
2022/09/06 05:30:43;;;;;;;0.20;0.20;;;;;;;;;;5121718;28;20247;-59
2022/09/06 05:33:29;;;;;;;0.40;0.40;;;;;;;;;;5115059;28;20252;-59
2022/09/06 05:36:16;;;;;;;0.50;0.50;;;;;;;;;;5096389;28;20288;-59
2022/09/06 05:39:03;;;;;;;0.40;0.40;;;;;;;;;;5103188;28;20234;-59
2022/09/06 05:41:52;;;;;;;0.50;0.50;;;;;;;;;;5101727;28;20272;-59
2022/09/06 05:44:39;;;;;;;0.40;0.40;;;;;;;;;;5099736;28;20259;-59
2022/09/06 05:47:25;;;;;;;0.50;0.50;;;;;;;;;;5102601;28;20201;-59
2022/09/06 05:50:12;;;;;;;0.30;0.30;;;;;;;;;;5097322;28;20237;-58
2022/09/06 05:52:59;;;;;;;0.50;0.50;;;;;;;;;;5099788;28;20208;-59
2022/09/06 05:55:46;;;;;;;0.40;0.40;;;;;;;;;;5098556;28;20255;-58
2022/09/06 05:58:35;;;;;;;2.73;0.57;;;;;;;;;;5096679;28;20265;-59
2022/09/06 06:01:24;;;;;;;0.70;0.70;;;;;;;;;;5097246;27;20684;-60
2022/09/06 06:04:11;;;;;;;0.57;0.57;;;;;;;;;;5097626;28;20211;-59
2022/09/06 06:06:58;;;;;;;0.60;0.60;;;;;;;;;;5100806;28;20286;-59
2022/09/06 06:09:45;;;;;;;0.70;0.70;;;;;;;;;;5099115;28;20743;-59
2022/09/06 06:12:32;;;;;;;1.60;0.80;;;;;;;;;;5104385;28;20242;-59
2022/09/06 06:15:20;;;;;;;0.77;0.77;;;;;;;;;;5102585;28;20302;-59
2022/09/06 06:18:07;;;;;;;0.70;0.70;;;;;;;;;;5100335;28;20263;-59
2022/09/06 06:21:07;;;;;;;0.57;0.57;;;;;;;;;;5103086;28;20285;-59
2022/09/06 06:23:56;;;;;;;0.93;0.90;;;;;;;;;;5106912;28;20282;-59
2022/09/06 06:26:43;;;;;;;0.50;0.50;;;;;;;;;;5102810;28;20211;-60
2022/09/06 06:29:30;;;;;;;0.50;0.50;;;;;;;;;;5102759;28;20205;-59
2022/09/06 06:32:18;;;;;;;0.60;0.60;;;;;;;;;;5101277;28;20210;-59
2022/09/06 06:35:07;;;;;;;0.70;0.70;;;;;;;;;;5115622;27;20317;-59
2022/09/06 06:37:55;;;;;;;0.53;0.53;;;;;;;;;;5120372;27;20308;-59
2022/09/06 06:40:45;;;;;;;0.70;0.70;;;;;;;;;;5121137;27;20207;-59
2022/09/06 06:43:35;;;;;;;0.50;0.50;;;;;;;;;;5121485;27;20206;-59
2022/09/06 06:46:23;;;;;;;0.60;0.60;;;;;;;;;;5126291;27;20214;-59
2022/09/06 06:49:12;;;;;;;0.60;0.60;;;;;;;;;;5121628;27;20263;-59
2022/09/06 06:51:59;;;;;;;0.40;0.40;;;;;;;;;;5116804;27;20285;-60
2022/09/06 06:54:45;;;;;;;0.47;0.47;;;;;;;;;;5117959;27;20686;-59
2022/09/06 06:57:32;;;;;;;0.50;0.50;;;;;;;;;;5124924;27;20242;-60
2022/09/06 07:00:19;;;;;;;0.60;0.60;;;;;;;;;;5120586;27;20620;-59
2022/09/06 07:03:06;;;;;;;0.67;0.67;;;;;;;;;;5117204;27;20761;-60
2022/09/06 07:05:55;;;;;;;0.50;0.50;;;;;;;;;;5116699;27;20225;-59
2022/09/06 07:08:42;;;;;;;0.55;0.55;;;;;;;;;;5121481;27;20238;-59
2022/09/06 07:11:29;;;;;;;0.40;0.40;;;;;;;;;;5122912;27;20275;-59
2022/09/06 07:14:16;;;;;;;0.55;0.55;;;;;;;;;;5121375;27;20240;-59
2022/09/06 07:17:03;;;;;;;0.50;0.50;;;;;;;;;;5120788;27;20259;-59
2022/09/06 07:19:50;;;;;;;0.47;0.47;;;;;;;;;;5120328;27;20232;-58
2022/09/06 07:22:39;;;;;;;0.63;0.63;;;;;;;;;;5118638;27;20344;-58
2022/09/06 07:25:26;;;;;;;0.35;0.35;;;;;;;;;;5117053;27;20326;-58
2022/09/06 07:28:13;;;;;;;0.47;0.47;;;;;;;;;;5117627;27;20281;-57
2022/09/06 07:31:00;;;;;;;0.50;0.50;;;;;;;;;;5119070;27;20288;-57
2022/09/06 07:33:47;;;;;;;0.40;0.40;;;;;;;;;;5120316;27;20233;-57
2022/09/06 07:36:35;;;;;;;0.60;0.60;;;;;;;;;;5118558;27;20645;-57
2022/09/06 07:39:23;;;;;;;0.73;0.73;;;;;;;;;;5120600;27;20229;-57
2022/09/06 07:42:10;;;;;;;0.30;0.30;;;;;;;;;;5119083;27;20270;-57
2022/09/06 07:44:57;;;;;;;0.47;0.47;;;;;;;;;;5119018;27;20274;-57
2022/09/06 07:47:44;;;;;;;0.63;0.63;;;;;;;;;;5118152;27;20209;-56
2022/09/06 07:50:32;;;;;;;0.30;0.30;;;;;;;;;;5115387;27;20286;-57
2022/09/06 07:53:19;;;;;;;0.45;0.45;;;;;;;;;;5119615;27;20758;-56
2022/09/06 07:56:09;;;;;;;0.50;0.50;;;;;;;;;;5116409;27;20344;-57
2022/09/06 07:58:56;;;;;;;0.30;0.30;;;;;;;;;;5118897;27;20228;-57
2022/09/06 08:01:43;;;;;;;0.40;0.40;;;;;;;;;;5115224;27;20662;-57
2022/09/06 08:04:31;;;;;;;0.30;0.30;;;;;;;;;;5119436;27;20752;-57
2022/09/06 08:07:17;;;;;;;0.43;0.43;;;;;;;;;;5117894;27;20257;-57
2022/09/06 08:10:08;;;;;;;0.45;0.45;;;;;;;;;;5118772;27;20274;-57
2022/09/06 08:12:56;;;;;;;0.50;0.50;;;;;;;;;;5123225;27;20656;-57
2022/09/06 08:15:43;;;;;;;1.00;0.30;;;;;;;;;;5115370;27;20583;-61
2022/09/06 08:18:30;;;;;;;0.25;0.25;;;;;;;;;;5114034;27;20312;-57
2022/09/06 08:21:17;;;;;;;0.30;0.30;;;;;;;;;;5119794;27;20336;-57
2022/09/06 08:24:06;;;;;;;0.30;0.30;;;;;;;;;;5118384;27;20284;-57
2022/09/06 08:26:53;;;;;;;0.50;0.50;;;;;;;;;;5114351;27;20285;-59
2022/09/06 08:29:41;;;;;;;0.40;0.40;;;;;;;;;;5114441;27;20281;-59
2022/09/06 08:32:28;;;;;;;0.20;0.20;;;;;;;;;;5114467;27;20630;-59
2022/09/06 08:35:15;;;;;;;0.35;0.35;;;;;;;;;;5116335;27;20618;-59
2022/09/06 08:38:04;;;;;;;0.40;0.40;;;;;;;;;;5114348;27;20666;-59
2022/09/06 08:40:51;;;;;;;0.43;0.43;;;;;;;;;;5116198;27;20213;-59
2022/09/06 08:43:39;;;;;;;0.43;0.43;;;;;;;;;;5114798;27;20279;-59
2022/09/06 08:46:33;;;;;;;0.30;0.30;;;;;;;;;;5115826;27;20202;-59
2022/09/06 08:49:20;;;;;;;0.47;0.47;;;;;;;;;;5117251;27;20209;-59
2022/09/06 08:52:28;;;;;;;0.40;0.40;;;;;;;;;;5114596;27;20684;-59
2022/09/06 08:55:26;;;;;;;0.30;0.30;;;;;;;;;;5120322;27;20193;-59
2022/09/06 08:58:29;;;;;;;0.47;0.47;;;;;;;;;;5117712;27;20253;-60
2022/09/06 09:01:21;;;;;;;0.50;0.50;;;;;;;;;;5126070;27;20241;-59
2022/09/06 09:04:15;;;;;;;0.52;0.52;;;;;;;;;;5117353;27;20335;-58
2022/09/06 09:07:12;;;;;;;0.38;0.38;;;;;;;;;;5125214;27;20223;-58
2022/09/06 09:10:02;;;;;;;0.60;0.60;;;;;;;;;;5114115;28;20278;-58
2022/09/06 09:12:50;;;;;;;0.60;0.55;;;;;;;;;;5112023;28;20717;-58
2022/09/06 09:15:37;;;;;;;0.50;0.50;;;;;;;;;;5115709;28;20555;-59
2022/09/06 09:18:27;;;;;;;0.57;0.57;;;;;;;;;;5118477;28;20272;-58
2022/09/06 09:21:18;;;;;;;0.65;0.65;;;;;;;;;;5116413;28;20267;-58
2022/09/06 09:24:07;;;;;;;0.70;0.70;;;;;;;;;;5117906;28;20281;-58
2022/09/06 09:26:57;;;;;;;0.60;0.60;;;;;;;;;;5114537;28;20255;-58
2022/09/06 09:29:58;;;;;;;0.90;0.90;;;;;;;;;;5120432;28;20212;-58
2022/09/06 09:32:46;;;;;;;0.90;0.90;;;;;;;;;;5116169;28;20282;-58
2022/09/06 09:35:36;;;;;;;0.65;0.65;;;;;;;;;;5098591;28;20242;-58
2022/09/06 09:38:27;;;;;;;0.70;0.70;;;;;;;;;;5100920;28;20234;-59
2022/09/06 09:41:27;;;;;;;0.77;0.77;;;;;;;;;;5100931;28;20282;-58
2022/09/06 09:44:18;;;;;;;0.77;0.77;;;;;;;;;;5105141;28;20298;-58
2022/09/06 09:47:24;;;;;;;0.60;0.60;;;;;;;;;;5099779;28;20303;-59
2022/09/06 09:50:23;;;;;;;0.70;0.70;;;;;;;;;;5095156;28;20278;-58
2022/09/06 09:53:13;;;;;;;0.50;0.50;;;;;;;;;;5103910;28;20263;-59
2022/09/06 09:56:01;;;;;;;0.60;0.60;;;;;;;;;;5103867;28;20564;-58
2022/09/06 09:58:48;;;;;;;0.65;0.65;;;;;;;;;;5100250;28;20227;-58
2022/09/06 10:01:38;;;;;;;0.55;0.55;;;;;;;;;;5103107;28;20225;-59
2022/09/06 10:04:30;;;;;;;0.65;0.65;;;;;;;;;;5101145;28;20323;-59
2022/09/06 10:07:19;;;;;;;0.52;0.52;;;;;;;;;;5095920;28;20229;-58
2022/09/06 10:10:12;;;;;;;0.60;0.60;;;;;;;;;;5098364;28;20543;-58
2022/09/06 10:13:09;;;;;;;0.75;0.70;;;;;;;;;;5096450;28;20213;-59
2022/09/06 10:15:58;;;;;;;0.68;0.68;;;;;;;;;;5094129;28;20237;-58
2022/09/06 10:18:45;;;;;;;0.50;0.50;;;;;;;;;;5095657;28;20696;-58
2022/09/06 10:21:32;;;;;;;0.75;0.75;;;;;;;;;;5095125;28;20202;-58
2022/09/06 10:24:25;;;;;;;0.70;0.70;;;;;;;;;;5101080;28;20277;-58
2022/09/06 10:27:13;;;;;;;0.77;0.77;;;;;;;;;;5102793;28;20225;-57
2022/09/06 10:30:05;;;;;;;0.60;0.60;;;;;;;;;;5103322;28;20291;-58
2022/09/06 10:33:00;;;;;;;0.70;0.70;;;;;;;;;;5103166;28;20214;-58
2022/09/06 10:35:47;;;;;;;0.73;0.73;;;;;;;;;;5116135;27;20359;-59
2022/09/06 10:38:45;;;;;;;0.65;0.65;;;;;;;;;;5121210;27;20794;-58
2022/09/06 10:41:44;;;;;;;0.70;0.70;;;;;;;;;;5121532;27;20700;-58
2022/09/06 10:44:49;;;;;;;0.50;0.50;;;;;;;;;;5115505;27;20203;-58
2022/09/06 10:48:00;;;;;;;0.50;0.50;;;;;;;;;;5121550;27;20225;-58
2022/09/06 10:50:54;;;;;;;0.60;0.60;;;;;;;;;;5119890;27;20208;-58
2022/09/06 10:53:46;;;;;;;0.40;0.40;;;;;;;;;;5122804;27;20205;-58
2022/09/06 10:56:40;;;;;;;0.50;0.50;;;;;;;;;;5117262;27;20732;-58
2022/09/06 10:59:30;;;;;;;0.65;0.65;;;;;;;;;;5117226;27;20320;-58
2022/09/06 11:02:31;;;;;;;0.60;0.60;;;;;;;;;;5112645;27;20283;-58
2022/09/06 11:05:24;;;;;;;0.45;0.45;;;;;;;;;;5116534;27;20324;-58
2022/09/06 11:08:17;;;;;;;0.50;0.50;;;;;;;;;;5118086;27;20213;-58
2022/09/06 11:11:11;;;;;;;0.40;0.40;;;;;;;;;;5126404;27;20229;-58
2022/09/06 11:13:58;;;;;;;0.52;0.52;;;;;;;;;;5118299;27;20278;-58
2022/09/06 11:16:49;;;;;;;0.40;0.40;;;;;;;;;;5119447;27;20282;-58
2022/09/06 11:19:43;;;;;;;0.70;0.70;;;;;;;;;;5120874;27;20214;-59
2022/09/06 11:22:59;;;;;;;0.50;0.50;;;;;;;;;;5117502;27;20205;-58
2022/09/06 11:26:05;;;;;;;0.60;0.60;;;;;;;;;;5118105;27;20299;-58
2022/09/06 11:28:54;;;;;;;0.50;0.50;;;;;;;;;;5123662;27;20288;-58
2022/09/06 11:31:52;;;;;;;0.60;0.60;;;;;;;;;;5120215;27;20330;-58
2022/09/06 11:34:39;;;;;;;0.40;0.40;;;;;;;;;;5114239;27;20654;-58
2022/09/06 11:37:31;;;;;;;0.60;0.60;;;;;;;;;;5119081;27;20206;-58
2022/09/06 11:40:22;;;;;;;0.50;0.50;;;;;;;;;;5117603;27;20313;-58
2022/09/06 11:43:16;;;;;;;0.55;0.55;;;;;;;;;;5119686;27;20205;-58
2022/09/06 11:46:03;;;;;;;0.43;0.43;;;;;;;;;;5118394;27;20278;-59
2022/09/06 11:49:01;;;;;;;0.55;0.55;;;;;;;;;;5117149;27;20209;-58
2022/09/06 11:51:48;;;;;;;0.40;0.40;;;;;;;;;;5120279;27;20209;-58
2022/09/06 11:54:42;;;;;;;0.50;0.50;;;;;;;;;;5125185;27;20918;-58
2022/09/06 11:57:32;;;;;;;0.50;0.50;;;;;;;;;;5120079;27;20679;-58
2022/09/06 12:00:22;;;;;;;0.50;0.50;;;;;;;;;;5116163;27;20257;-62
2022/09/06 12:03:30;;;;;;;0.73;0.73;;;;;;;;;;5113907;27;20209;-58
2022/09/06 12:06:19;;;;;;;0.50;0.50;;;;;;;;;;5115187;27;20250;-59
2022/09/06 12:09:29;;;;;;;0.60;0.60;;;;;;;;;;5118799;27;20277;-58
2022/09/06 12:15:26;;;;;;;0.50;0.40;;;;;;;;;;5114907;27;20546;-57
2022/09/06 12:19:01;;;;;;;0.50;0.50;;;;;;;;;;5108487;28;20304;-60
2022/09/06 12:21:51;;;;;;;0.60;0.60;;;;;;;;;;5112678;28;20190;-57
2022/09/06 12:24:56;;;;;;;0.50;0.50;;;;;;;;;;5111731;28;20259;-57
2022/09/06 12:27:54;;;;;;;0.50;0.50;;;;;;;;;;5106056;28;20198;-57
2022/09/06 12:30:43;;;;;;;0.40;0.40;;;;;;;;;;5110549;28;20308;-58
2022/09/06 12:33:33;;;;;;;0.40;0.40;;;;;;;;;;5108309;28;20303;-58
2022/09/06 12:36:27;;;;;;;0.63;0.47;;;;;;;;;;5109965;28;20210;-57
2022/09/06 12:39:15;;;;;;;0.40;0.40;;;;;;;;;;5106329;28;20204;-57
2022/09/06 12:42:04;;;;;;;0.50;0.50;;;;;;;;;;5110617;28;20234;-58
2022/09/06 12:44:53;;;;;;;0.40;0.40;;;;;;;;;;5109453;28;20293;-57
2022/09/06 12:47:40;;;;;;;0.38;0.38;;;;;;;;;;5107876;28;20667;-57
2022/09/06 12:50:30;;;;;;;0.68;0.68;;;;;;;;;;5107205;28;20730;-57
2022/09/06 12:53:23;;;;;;;0.50;0.50;;;;;;;;;;5116025;28;20221;-58
2022/09/06 12:56:12;;;;;;;0.63;0.52;;;;;;;;;;5109527;28;20315;-58
2022/09/06 12:59:13;;;;;;;0.40;0.40;;;;;;;;;;5111112;28;20210;-57
2022/09/06 13:02:04;;;;;;;0.50;0.50;;;;;;;;;;5108843;28;20216;-57
2022/09/06 13:04:56;;;;;;;0.47;0.40;;;;;;;;;;5116868;28;20202;-60
2022/09/06 13:07:47;;;;;;;0.50;0.40;;;;;;;;;;5088916;28;20229;-58
2022/09/06 13:10:39;;;;;;;0.40;0.40;;;;;;;;;;5086011;28;20333;-58
2022/09/06 13:13:27;;;;;;;0.45;0.45;;;;;;;;;;5090674;28;20280;-57
2022/09/06 13:16:20;;;;;;;0.40;0.40;;;;;;;;;;5085450;28;20201;-57
2022/09/06 13:19:14;;;;;;;0.47;0.47;;;;;;;;;;5090669;28;20203;-58
2022/09/06 13:22:04;;;;;;;0.50;0.50;;;;;;;;;;5083741;28;20245;-58
2022/09/06 13:24:56;;;;;;;0.40;0.40;;;;;;;;;;5078353;28;20210;-58
2022/09/06 13:27:45;;;;;;;0.45;0.45;;;;;;;;;;5076879;28;20678;-57
2022/09/06 13:30:35;;;;;;;0.52;0.30;;;;;;;;;;5075620;28;20305;-57
2022/09/06 13:33:24;;;;;;;0.38;0.38;;;;;;;;;;5072396;28;20203;-57
2022/09/06 13:36:22;;;;;;;0.60;0.60;;;;;;;;;;5075083;28;20264;-58
2022/09/06 13:39:11;;;;;;;0.45;0.45;;;;;;;;;;5072932;28;20286;-58
2022/09/06 13:42:01;;;;;;;0.47;0.47;;;;;;;;;;5074654;28;20550;-58
2022/09/06 13:44:50;;;;;;;0.80;0.80;;;;;;;;;;5073273;28;20334;-57
2022/09/06 13:47:37;;;;;;;0.52;0.52;;;;;;;;;;5077961;28;20219;-57
2022/09/06 13:50:26;;;;;;;0.45;0.45;;;;;;;;;;5076971;28;20674;-57
2022/09/06 13:53:19;;;;;;;0.40;0.40;;;;;;;;;;5081258;28;20578;-57
2022/09/06 13:56:07;;;;;;;0.50;0.50;;;;;;;;;;5077329;28;20196;-60
2022/09/06 13:58:54;;;;;;;1.08;0.50;;;;;;;;;;5073707;28;20203;-57
2022/09/06 14:01:45;;;;;;;0.57;0.57;;;;;;;;;;5072891;28;20683;-58
2022/09/06 14:04:34;;;;;;;0.40;0.40;;;;;;;;;;5077205;28;20224;-57
2022/09/06 14:07:21;;;;;;;1.98;0.73;;;;;;;;;;5070336;28;20223;-60
2022/09/06 14:10:10;;;;;;;0.50;0.50;;;;;;;;;;5076879;28;20250;-58
2022/09/06 14:12:57;;;;;;;0.55;0.55;;;;;;;;;;5071669;28;20207;-57
2022/09/06 14:15:45;;;;;;;0.60;0.60;;;;;;;;;;5070786;28;20212;-60
2022/09/06 14:18:34;;;;;;;0.47;0.47;;;;;;;;;;5074379;28;20203;-58
2022/09/06 14:21:21;;;;;;;0.75;0.50;;;;;;;;;;5083131;28;20207;-57
2022/09/06 14:24:08;;;;;;;0.50;0.50;;;;;;;;;;5072433;28;20196;-57
2022/09/06 14:26:55;;;;;;;1.35;0.70;;;;;;;;;;5076015;28;20203;-59
2022/09/06 14:29:42;;;;;;;0.52;0.52;;;;;;;;;;5074255;28;20612;-60
2022/09/06 14:32:29;;;;;;;0.50;0.50;;;;;;;;;;5069497;28;20284;-60
2022/09/06 14:35:17;;;;;;;0.40;0.40;;;;;;;;;;5071926;28;20258;-58
2022/09/06 14:38:04;;;;;;;0.52;0.50;;;;;;;;;;5074138;28;20336;-60
2022/09/06 14:40:51;;;;;;;0.63;0.63;;;;;;;;;;5073243;28;20666;-59
2022/09/06 14:43:38;;;;;;;0.57;0.57;;;;;;;;;;5077444;28;20211;-61
2022/09/06 14:46:27;;;;;;;0.50;0.50;;;;;;;;;;5069213;28;20206;-59
2022/09/06 14:49:14;;;;;;;0.50;0.50;;;;;;;;;;5072901;28;20292;-59
2022/09/06 14:52:03;;;;;;;0.40;0.40;;;;;;;;;;5080147;28;20340;-59
2022/09/06 14:54:50;;;;;;;0.40;0.40;;;;;;;;;;5070182;28;20230;-60
2022/09/06 14:57:37;;;;;;;0.50;0.50;;;;;;;;;;5080039;28;20244;-58
2022/09/06 15:00:24;;;;;;;0.32;0.32;;;;;;;;;;5075175;28;20216;-57
2022/09/06 15:03:11;;;;;;;0.65;0.50;;;;;;;;;;5080607;28;20213;-57
2022/09/06 15:05:58;;;;;;;0.50;0.50;;;;;;;;;;5074848;28;20234;-57
2022/09/06 15:08:46;;;;;;;0.35;0.35;;;;;;;;;;5065753;28;20600;-58
2022/09/06 15:11:35;;;;;;;0.35;0.35;;;;;;;;;;5069650;28;20297;-57
2022/09/06 15:14:24;;;;;;;0.73;0.70;;;;;;;;;;5075966;28;20241;-58
2022/09/06 15:17:11;;;;;;;0.30;0.30;;;;;;;;;;5070046;28;20214;-58
2022/09/06 15:19:58;;;;;;;0.30;0.30;;;;;;;;;;5076982;28;20580;-57
2022/09/06 15:22:45;;;;;;;0.32;0.32;;;;;;;;;;5072440;28;20260;-59
2022/09/06 15:25:34;;;;;;;1.07;0.50;;;;;;;;;;5075404;28;20684;-59
2022/09/06 15:28:21;;;;;;;0.20;0.20;;;;;;;;;;5069329;28;20207;-58
2022/09/06 15:31:08;;;;;;;0.50;0.50;;;;;;;;;;5074608;28;20589;-58
2022/09/06 15:33:57;;;;;;;0.40;0.40;;;;;;;;;;5071547;28;20564;-58
2022/09/06 15:36:44;;;;;;;0.30;0.30;;;;;;;;;;5071873;28;20208;-58
2022/09/06 15:39:31;;;;;;;0.30;0.30;;;;;;;;;;5072511;28;20223;-58
2022/09/06 15:42:19;;;;;;;0.32;0.32;;;;;;;;;;5073995;28;20213;-57
2022/09/06 15:45:08;;;;;;;0.47;0.47;;;;;;;;;;5069180;28;20224;-58
2022/09/06 15:47:55;;;;;;;0.40;0.40;;;;;;;;;;5071544;28;20204;-57
2022/09/06 15:50:42;;;;;;;0.50;0.50;;;;;;;;;;5070773;28;20205;-58
2022/09/06 15:53:29;;;;;;;0.50;0.50;;;;;;;;;;5068295;28;20206;-57
2022/09/06 15:56:18;;;;;;;0.40;0.40;;;;;;;;;;5068662;28;20231;-58
2022/09/06 15:59:06;;;;;;;0.50;0.30;;;;;;;;;;5073174;28;20213;-58
2022/09/06 16:01:53;;;;;;;0.30;0.30;;;;;;;;;;5071223;28;20204;-57
2022/09/06 16:04:40;;;;;;;0.40;0.40;;;;;;;;;;5070245;28;20227;-57
2022/09/06 16:07:28;;;;;;;0.47;0.47;;;;;;;;;;5073219;28;20218;-57
2022/09/06 16:10:15;;;;;;;0.40;0.40;;;;;;;;;;5073862;28;20205;-57
2022/09/06 16:13:02;;;;;;;0.97;0.33;;;;;;;;;;5077970;28;20826;-57
2022/09/06 16:15:57;;;;;;;1.03;0.30;;;;;;;;;;5071561;28;20225;-58
2022/09/06 16:18:46;;;;;;;0.30;0.30;;;;;;;;;;5071959;28;20206;-57
2022/09/06 16:21:34;;;;;;;0.40;0.40;;;;;;;;;;5068273;28;20218;-59
2022/09/06 16:24:21;;;;;;;0.57;0.57;;;;;;;;;;5075349;28;20206;-58
2022/09/06 16:27:08;;;;;;;0.30;0.30;;;;;;;;;;5071340;28;20219;-58
2022/09/06 16:29:55;;;;;;;0.30;0.30;;;;;;;;;;5073602;28;20589;-58
2022/09/06 16:32:44;;;;;;;0.50;0.50;;;;;;;;;;5071854;28;20206;-58
2022/09/06 16:35:31;;;;;;;0.50;0.50;;;;;;;;;;5068695;28;20743;-58
2022/09/06 16:38:18;;;;;;;0.30;0.30;;;;;;;;;;5070335;28;20213;-58
2022/09/06 16:41:11;;;;;;;0.33;0.33;;;;;;;;;;5077230;28;20212;-58
2022/09/06 16:43:58;;;;;;;0.30;0.30;;;;;;;;;;5072862;28;20213;-58
2022/09/06 16:46:47;;;;;;;0.40;0.40;;;;;;;;;;5075752;28;20599;-59
2022/09/06 16:49:36;;;;;;;0.40;0.40;;;;;;;;;;5070924;28;20654;-58
2022/09/06 16:52:24;;;;;;;0.40;0.40;;;;;;;;;;5073568;28;20200;-59
2022/09/06 16:55:11;;;;;;;0.40;0.40;;;;;;;;;;5075366;28;20221;-58
2022/09/06 16:57:58;;;;;;;0.30;0.30;;;;;;;;;;5082626;28;20223;-57
2022/09/06 17:00:45;;;;;;;0.30;0.30;;;;;;;;;;5072034;28;20201;-58
2022/09/06 17:03:32;;;;;;;0.47;0.30;;;;;;;;;;5076635;28;20228;-58